Time;durP1;ratioP1;P1;durP2;ratioP2;P2;SDS_P1;SDS_P2;PMS_P1;PMS_P2;Temp;Humidity;BMP_temperature;BMP_pressure;BME280_temperature;BME280_humidity;BME280_pressure;Samples;Min_cycle;Max_cycle;Signal;HPM_P1;HPM_P2
2022/04/10 00:01:23;;;;;;;3.97;2.63;;;;;;;;;;5046686;28;20064;-55
2022/04/10 00:04:20;;;;;;;5.73;3.03;;;;;;;;;;5046645;28;20029;-57
2022/04/10 00:13:07;;;;;;;4.70;2.50;;;;;;;;;;4947475;29;20034;-56
2022/04/10 00:27:45;;;;;;;2.50;2.13;;;;;;;;;;4945381;29;20038;-55
2022/04/10 00:30:36;;;;;;;2.90;2.20;;;;;;;;;;5042172;28;20044;-56
2022/04/10 00:33:15;;;;;;;3.08;1.70;;;;;;;;;;5046522;28;20025;-56
2022/04/10 00:36:11;;;;;;;4.77;2.60;;;;;;;;;;5046475;28;20328;-55
2022/04/10 00:38:47;;;;;;;3.23;2.23;;;;;;;;;;5019715;28;20108;-52
2022/04/10 00:41:23;;;;;;;9.80;2.93;;;;;;;;;;5046175;28;20045;-56
2022/04/10 00:47:58;;;;;;;2.77;2.07;;;;;;;;;;4907537;29;20045;-55
2022/04/10 00:51:40;;;;;;;3.83;2.60;;;;;;;;;;4905328;29;20037;-56
2022/04/10 00:54:03;;;;;;;;;;;;;;;;;;;;;
2022/04/10 00:56:57;;;;;;;5.43;2.50;;;;;;;;;;4921268;29;20132;-56
2022/04/10 00:59:54;;;;;;;3.30;2.60;;;;;;;;;;4946136;29;20060;-55
2022/04/10 01:05:52;;;;;;;3.03;2.20;;;;;;;;;;4946160;29;20035;-55
2022/04/10 01:08:28;;;;;;;3.00;2.07;;;;;;;;;;4949592;29;20059;-54
2022/04/10 01:10:57;;;;;;;4.10;2.60;;;;;;;;;;4950388;29;20031;-56
2022/04/10 01:13:24;;;;;;;3.50;3.07;;;;;;;;;;5045936;28;20045;-54
2022/04/10 01:18:54;;;;;;;2.95;2.22;;;;;;;;;;5045845;28;20053;-56
2022/04/10 01:21:56;;;;;;;2.92;2.00;;;;;;;;;;5049578;28;20033;-54
2022/04/10 01:24:31;;;;;;;2.43;1.87;;;;;;;;;;4950224;29;20084;-55
2022/04/10 01:27:27;;;;;;;7.87;2.40;;;;;;;;;;5019898;28;20121;-56
2022/04/10 01:32:57;;;;;;;4.60;2.90;;;;;;;;;;5049917;28;20089;-53
2022/04/10 01:35:28;;;;;;;3.50;2.77;;;;;;;;;;5029882;28;20415;-54
2022/04/10 01:38:22;;;;;;;5.32;2.47;;;;;;;;;;5048943;28;20037;-55
2022/04/10 01:44:12;;;;;;;5.10;2.43;;;;;;;;;;5049443;28;20056;-55
2022/04/10 01:55:27;;;;;;;4.55;2.67;;;;;;;;;;5048571;28;20045;-56
2022/04/10 01:58:22;;;;;;;3.97;2.93;;;;;;;;;;5047603;28;20284;-55
2022/04/10 02:01:01;;;;;;;4.00;2.33;;;;;;;;;;5048836;28;20051;-57
2022/04/10 02:03:50;;;;;;;3.03;2.13;;;;;;;;;;5048470;28;20121;-56
2022/04/10 02:06:20;;;;;;;4.87;2.33;;;;;;;;;;5049297;28;20029;-55
2022/04/10 02:08:47;;;;;;;6.87;2.57;;;;;;;;;;5046871;28;20045;-54
2022/04/10 02:14:32;;;;;;;3.83;2.50;;;;;;;;;;4948727;29;20032;-55
2022/04/10 02:20:20;;;;;;;2.53;1.87;;;;;;;;;;5035422;28;20040;-56
2022/04/10 02:22:56;;;;;;;2.97;2.33;;;;;;;;;;5048392;28;20113;-54
2022/04/10 02:28:30;;;;;;;4.40;2.83;;;;;;;;;;5047731;28;20044;-53
2022/04/10 02:37:03;;;;;;;4.50;2.80;;;;;;;;;;5033631;28;20048;-54
2022/04/10 02:39:59;;;;;;;4.65;2.95;;;;;;;;;;5047734;28;20053;-55
2022/04/10 02:42:50;;;;;;;3.13;2.73;;;;;;;;;;5013066;28;20049;-54
2022/04/10 02:45:47;;;;;;;3.77;2.17;;;;;;;;;;5049084;28;20044;-56
2022/04/10 02:48:55;;;;;;;3.87;3.03;;;;;;;;;;5047565;28;20021;-55
2022/04/10 02:51:53;;;;;;;8.23;3.20;;;;;;;;;;4948412;29;20163;-56
2022/04/10 02:54:36;;;;;;;4.10;3.53;;;;;;;;;;4948265;29;20576;-56
2022/04/10 02:57:03;;;;;;;5.17;3.27;;;;;;;;;;5029983;28;20142;-57
2022/04/10 03:03:25;;;;;;;;;;;;;;;;;;;;;
2022/04/10 03:06:09;;;;;;;4.17;2.83;;;;;;;;;;4981241;28;20048;-55
2022/04/10 03:08:42;;;;;;;4.10;3.17;;;;;;;;;;5025186;28;20108;-55
2022/04/10 03:11:21;;;;;;;5.43;3.57;;;;;;;;;;5047466;28;20029;-56
2022/04/10 03:17:06;;;;;;;3.90;3.07;;;;;;;;;;4955444;28;20044;-55
2022/04/10 03:19:55;;;;;;;3.33;2.43;;;;;;;;;;5045814;28;20045;-54
2022/04/10 03:22:22;;;;;;;5.13;2.67;;;;;;;;;;5047279;28;20044;-56
2022/04/10 03:27:59;;;;;;;5.47;3.93;;;;;;;;;;5045939;28;20033;-57
2022/04/10 03:30:34;;;;;;;6.23;3.10;;;;;;;;;;5042370;28;20029;-56
2022/04/10 03:33:32;;;;;;;3.97;2.53;;;;;;;;;;5033189;28;20076;-57
2022/04/10 03:39:25;;;;;;;13.87;4.30;;;;;;;;;;5028505;28;20096;-57
2022/04/10 03:42:23;;;;;;;7.60;4.33;;;;;;;;;;5001945;28;20041;-56
2022/04/10 03:45:22;;;;;;;5.33;3.20;;;;;;;;;;5032540;28;20119;-53
2022/04/10 03:48:05;;;;;;;4.20;3.10;;;;;;;;;;5024023;28;20499;-56
2022/04/10 03:56:51;;;;;;;;;;;;;;;;;;;;;
2022/04/10 03:59:43;;;;;;;3.40;2.90;;;;;;;;;;4949428;28;20030;-55
2022/04/10 04:02:46;;;;;;;7.23;4.63;;;;;;;;;;5002935;28;20052;-55
2022/04/10 04:05:24;;;;;;;4.20;3.57;;;;;;;;;;5033171;28;20029;-56
2022/04/10 04:11:12;;;;;;;;;;;;;;;;;;;;;
2022/04/10 04:14:13;;;;;;;;;;;;;;;;;;;;;
2022/04/10 04:16:59;;;;;;;;;;;;;;;;;;;;;
2022/04/10 04:20:04;;;;;;;3.75;3.15;;;;;;;;;;5001208;28;20089;-57
2022/04/10 04:22:43;;;;;;;4.13;3.50;;;;;;;;;;5014023;28;20034;-54
2022/04/10 04:28:10;;;;;;;6.27;3.33;;;;;;;;;;5015174;28;20558;-53
2022/04/10 04:34:01;;;;;;;5.27;4.13;;;;;;;;;;5000468;28;20025;-57
2022/04/10 04:36:46;;;;;;;4.10;3.70;;;;;;;;;;5032776;28;20030;-56
2022/04/10 04:42:45;;;;;;;5.23;4.20;;;;;;;;;;5032868;28;20111;-55
2022/04/10 04:48:30;;;;;;;5.27;4.30;;;;;;;;;;5032214;28;20052;-56
2022/04/10 04:51:20;;;;;;;5.70;4.77;;;;;;;;;;5033025;28;20034;-55
2022/04/10 04:54:13;;;;;;;4.53;3.95;;;;;;;;;;5031049;28;20134;-54
2022/04/10 04:57:02;;;;;;;8.77;5.30;;;;;;;;;;5009614;28;20087;-54
2022/04/10 04:59:40;;;;;;;6.03;4.77;;;;;;;;;;5012807;28;20018;-55
2022/04/10 05:02:22;;;;;;;5.63;4.97;;;;;;;;;;4995745;28;20436;-56
2022/04/10 05:04:59;;;;;;;7.03;4.90;;;;;;;;;;5033015;28;20067;-56
2022/04/10 05:07:41;;;;;;;8.27;5.33;;;;;;;;;;5028492;28;20319;-55
2022/04/10 05:10:49;;;;;;;5.40;4.20;;;;;;;;;;5031290;28;20478;-56
2022/04/10 05:16:58;;;;;;;6.60;4.57;;;;;;;;;;5019215;28;20026;-56
2022/04/10 05:22:33;;;;;;;6.73;5.00;;;;;;;;;;5009007;28;20034;-56
2022/04/10 05:28:25;;;;;;;;;;;;;;;;;;;;;
2022/04/10 05:31:37;;;;;;;;;;;;;;;;;;;;;
2022/04/10 05:34:35;;;;;;;;;;;;;;;;;;;;;
2022/04/10 05:37:24;;;;;;;7.37;4.60;;;;;;;;;;4972223;28;20030;-52
2022/04/10 05:40:07;;;;;;;9.13;5.22;;;;;;;;;;5028782;28;20056;-54
2022/04/10 05:42:43;;;;;;;6.67;5.63;;;;;;;;;;5046288;28;20105;-52
2022/04/10 05:45:28;;;;;;;7.27;5.00;;;;;;;;;;5035912;28;20035;-54
2022/04/10 05:48:29;;;;;;;5.20;4.00;;;;;;;;;;5035445;28;20048;-54
2022/04/10 05:51:27;;;;;;;5.17;4.67;;;;;;;;;;5035594;28;20507;-55
2022/04/10 05:54:41;;;;;;;7.33;4.70;;;;;;;;;;5035906;28;20124;-54
2022/04/10 05:57:16;;;;;;;6.40;4.73;;;;;;;;;;4959459;28;20045;-54
2022/04/10 06:00:15;;;;;;;8.03;4.43;;;;;;;;;;5006390;28;20030;-56
2022/04/10 06:02:44;;;;;;;5.40;4.87;;;;;;;;;;4978838;28;20159;-55
2022/04/10 06:05:37;;;;;;;9.07;4.20;;;;;;;;;;4967110;28;20035;-56
2022/04/10 06:08:13;;;;;;;4.15;3.42;;;;;;;;;;4973409;28;20043;-54
2022/04/10 06:11:35;;;;;;;5.30;4.63;;;;;;;;;;4974268;28;20077;-56
2022/04/10 06:14:30;;;;;;;5.38;4.18;;;;;;;;;;4974212;28;20046;-56
2022/04/10 06:17:13;;;;;;;4.70;3.72;;;;;;;;;;4959945;28;20034;-55
2022/04/10 06:19:54;;;;;;;8.73;3.40;;;;;;;;;;4994295;28;20099;-57
2022/04/10 06:22:45;;;;;;;3.83;2.97;;;;;;;;;;5018705;28;20057;-57
2022/04/10 06:28:53;;;;;;;4.72;2.78;;;;;;;;;;5030175;28;20533;-56
2022/04/10 06:32:00;;;;;;;4.32;3.33;;;;;;;;;;5018812;28;20041;-56
2022/04/10 06:34:39;;;;;;;3.78;3.10;;;;;;;;;;4976033;28;20087;-57
2022/04/10 06:37:14;;;;;;;5.15;2.47;;;;;;;;;;4968532;28;20551;-57
2022/04/10 06:40:01;;;;;;;3.85;3.47;;;;;;;;;;4970591;28;20031;-56
2022/04/10 06:46:04;;;;;;;3.92;2.45;;;;;;;;;;4985910;28;20034;-57
2022/04/10 06:48:35;;;;;;;6.20;3.85;;;;;;;;;;5002262;28;20404;-56
2022/04/10 06:51:04;;;;;;;4.38;3.25;;;;;;;;;;5006023;28;20034;-56
2022/04/10 06:56:40;;;;;;;;;;;;;;;;;;5008358;28;20131;-59
2022/04/10 07:02:50;;;;;;;4.30;3.10;;;;;;;;;;5028129;28;20183;-53
2022/04/10 07:05:39;;;;;;;;;;;;;;;;;;;;;
2022/04/10 07:08:15;;;;;;;2.95;2.35;;;;;;;;;;5033810;28;20095;-56
2022/04/10 07:10:45;;;;;;;6.85;3.72;;;;;;;;;;5012919;28;20033;-56
2022/04/10 07:13:33;;;;;;;4.80;3.42;;;;;;;;;;5032253;28;20499;-56
2022/04/10 07:16:23;;;;;;;;;;;;;;;;;;;;;
2022/04/10 07:19:18;;;;;;;6.25;3.53;;;;;;;;;;5029181;28;20040;-56
2022/04/10 07:24:47;;;;;;;4.35;3.22;;;;;;;;;;5030873;28;20155;-56
2022/04/10 07:27:48;;;;;;;4.45;3.45;;;;;;;;;;5021697;28;20036;-57
2022/04/10 07:30:25;;;;;;;;;;;;;;;;;;;;;
2022/04/10 07:33:45;;;;;;;4.65;4.10;;;;;;;;;;5012389;28;20535;-53
2022/04/10 07:37:04;;;;;;;;;;;;;;;;;;;;;
2022/04/10 07:39:35;;;;;;;4.88;3.35;;;;;;;;;;4947161;28;20046;-56
2022/04/10 07:42:38;;;;;;;6.78;2.47;;;;;;;;;;5028651;28;20041;-57
2022/04/10 07:48:56;;;;;;;6.78;3.65;;;;;;;;;;5028254;28;20087;-55
2022/04/10 07:51:33;;;;;;;4.72;3.30;;;;;;;;;;4990217;28;20041;-55
2022/04/10 07:57:03;;;;;;;3.53;3.05;;;;;;;;;;5026983;28;20042;-57
2022/04/10 08:00:25;;;;;;;4.88;3.70;;;;;;;;;;5033683;28;20528;-55
2022/04/10 08:03:31;;;;;;;;;;;;;;;;;;;;;
2022/04/10 08:06:20;;;;;;;3.33;2.60;;;;;;;;;;4972347;28;20053;-52
2022/04/10 08:09:19;;;;;;;4.50;3.38;;;;;;;;;;4962450;28;20042;-54
2022/04/10 08:15:18;;;;;;;;;;;;;;;;;;;;;
2022/04/10 08:23:39;;;;;;;5.88;4.40;;;;;;;;;;5026468;28;20178;-55
2022/04/10 08:26:20;;;;;;;4.07;3.42;;;;;;;;;;5023801;28;20112;-56
2022/04/10 08:29:01;;;;;;;6.88;3.67;;;;;;;;;;5032281;28;20036;-55
2022/04/10 08:31:45;;;;;;;;;;;;;;;;;;5032827;28;20037;-54
2022/04/10 08:34:24;;;;;;;5.38;2.95;;;;;;;;;;5033004;28;19996;-56
2022/04/10 08:37:03;;;;;;;3.90;3.00;;;;;;;;;;5031025;28;20029;-56
2022/04/10 08:39:40;;;;;;;5.57;3.50;;;;;;;;;;5018607;28;20574;-57
2022/04/10 08:42:51;;;;;;;4.80;2.90;;;;;;;;;;5033142;28;20124;-56
2022/04/10 08:51:39;;;;;;;3.95;2.42;;;;;;;;;;5023549;28;20116;-55
2022/04/10 08:54:47;;;;;;;8.43;2.80;;;;;;;;;;5014820;28;20515;-55
2022/04/10 08:57:48;;;;;;;3.15;2.65;;;;;;;;;;4932561;29;20044;-56
2022/04/10 09:00:32;;;;;;;4.85;2.55;;;;;;;;;;4929805;29;20032;-56
2022/04/10 09:03:46;;;;;;;4.00;2.17;;;;;;;;;;5018478;28;20069;-56
2022/04/10 09:06:09;;;;;;;8.43;3.72;;;;;;;;;;5027649;28;20091;-57
2022/04/10 09:08:50;;;;;;;5.82;3.25;;;;;;;;;;5031909;28;20467;-57
2022/04/10 09:14:10;;;;;;;2.78;2.03;;;;;;;;;;5035377;28;19912;-54
2022/04/10 09:17:13;;;;;;;5.10;2.97;;;;;;;;;;5036685;28;20103;-57
2022/04/10 09:32:19;;;;;;;6.13;2.50;;;;;;;;;;5013861;28;20105;-56
2022/04/10 09:35:11;;;;;;;3.75;2.40;;;;;;;;;;5002664;28;20030;-56
2022/04/10 09:38:08;;;;;;;;;;;;;;;;;;;;;
2022/04/10 09:41:08;;;;;;;3.75;2.58;;;;;;;;;;5017944;28;20033;-56
2022/04/10 09:44:33;;;;;;;6.85;2.92;;;;;;;;;;5036271;28;20399;-57
2022/04/10 09:46:57;;;;;;;;;;;;;;;;;;;;;
2022/04/10 09:49:48;;;;;;;4.50;2.35;;;;;;;;;;5033896;28;20045;-57
2022/04/10 09:52:26;;;;;;;5.07;3.20;;;;;;;;;;5011756;28;20499;-55
2022/04/10 09:55:01;;;;;;;4.70;3.20;;;;;;;;;;5012857;28;20484;-57
2022/04/10 10:09:53;;;;;;;;;;;;;;;;;;;;;
2022/04/10 10:12:32;;;;;;;3.20;1.88;;;;;;;;;;4996537;28;20048;-56
2022/04/10 10:15:11;;;;;;;4.05;2.38;;;;;;;;;;4998279;28;20372;-56
2022/04/10 10:20:58;;;;;;;5.07;1.83;;;;;;;;;;5035604;28;20340;-57
2022/04/10 10:23:47;;;;;;;4.30;2.08;;;;;;;;;;5034861;28;20137;-56
2022/04/10 10:26:32;;;;;;;4.53;1.90;;;;;;;;;;5027653;28;20033;-54
2022/04/10 10:29:34;;;;;;;3.90;1.70;;;;;;;;;;5032400;28;20137;-56
2022/04/10 10:32:36;;;;;;;3.70;2.45;;;;;;;;;;5027218;28;20029;-55
2022/04/10 10:41:18;;;;;;;3.05;1.80;;;;;;;;;;4961495;28;20154;-56
2022/04/10 10:44:24;;;;;;;;;;;;;;;;;;;;;
2022/04/10 10:47:15;;;;;;;5.22;2.63;;;;;;;;;;5035126;28;20122;-55
2022/04/10 10:56:19;;;;;;;5.80;3.65;;;;;;;;;;5022746;28;20030;-56
2022/04/10 11:02:49;;;;;;;8.65;3.65;;;;;;;;;;4972130;28;20101;-57
2022/04/10 11:12:01;;;;;;;6.43;4.38;;;;;;;;;;5026557;28;20471;-52
2022/04/10 11:14:56;;;;;;;;;;;;;;;;;;;;;
2022/04/10 11:17:41;;;;;;;7.18;4.88;;;;;;;;;;5017772;28;20386;-56
2022/04/10 11:20:32;;;;;;;7.32;5.00;;;;;;;;;;5031547;28;20136;-55
2022/04/10 11:23:23;;;;;;;4.55;3.70;;;;;;;;;;5012379;28;20496;-55
2022/04/10 11:25:54;;;;;;;5.53;3.15;;;;;;;;;;5011264;28;20491;-57
2022/04/10 11:28:36;;;;;;;5.15;4.38;;;;;;;;;;5033182;28;20129;-55
2022/04/10 11:31:32;;;;;;;3.83;3.17;;;;;;;;;;5018083;28;20028;-56
2022/04/10 11:34:25;;;;;;;7.80;3.63;;;;;;;;;;5011261;28;20475;-57
2022/04/10 11:37:04;;;;;;;3.45;2.78;;;;;;;;;;4981340;28;20040;-57
2022/04/10 11:40:09;;;;;;;;;;;;;;;;;;;;;
2022/04/10 11:46:12;;;;;;;3.75;2.42;;;;;;;;;;4972949;28;20030;-54
2022/04/10 11:49:09;;;;;;;3.25;2.17;;;;;;;;;;5016377;28;20168;-58
2022/04/10 11:54:58;;;;;;;2.63;1.67;;;;;;;;;;5032620;28;20067;-55
2022/04/10 11:57:54;;;;;;;4.50;3.22;;;;;;;;;;5007488;28;20423;-58
2022/04/10 12:01:18;;;;;;;;;;;;;;;;;;;;;
2022/04/10 12:03:50;;;;;;;;;;;;;;;;;;;;;
2022/04/10 12:06:40;;;;;;;4.78;3.10;;;;;;;;;;5031420;28;20025;-58
2022/04/10 12:09:31;;;;;;;4.03;3.00;;;;;;;;;;5029274;28;20418;-57
2022/04/10 12:12:02;;;;;;;5.07;3.05;;;;;;;;;;5026762;28;20057;-58
2022/04/10 12:15:09;;;;;;;3.38;2.40;;;;;;;;;;4997375;28;20564;-57
2022/04/10 12:17:47;;;;;;;3.78;2.70;;;;;;;;;;4899746;29;20222;-56
2022/04/10 12:20:25;;;;;;;4.93;3.38;;;;;;;;;;4884710;28;20100;-57
2022/04/10 12:26:21;;;;;;;5.70;2.28;;;;;;;;;;4918068;29;20252;-54
2022/04/10 12:28:53;;;;;;;4.30;2.88;;;;;;;;;;4999749;28;20066;-57
2022/04/10 12:34:31;;;;;;;7.90;2.78;;;;;;;;;;4969602;28;20357;-58
2022/04/10 12:40:23;;;;;;;3.35;2.72;;;;;;;;;;4950117;28;20042;-58
2022/04/10 12:43:16;;;;;;;4.82;2.72;;;;;;;;;;4979328;28;20365;-57
2022/04/10 12:46:11;;;;;;;4.30;2.58;;;;;;;;;;5011842;28;20487;-54
2022/04/10 12:49:10;;;;;;;6.22;2.85;;;;;;;;;;5028262;28;20056;-54
2022/04/10 12:57:45;;;;;;;3.25;2.45;;;;;;;;;;5028342;28;20033;-56
2022/04/10 13:00:47;;;;;;;5.85;3.45;;;;;;;;;;5013648;28;20075;-56
2022/04/10 13:07:05;;;;;;;5.63;4.05;;;;;;;;;;5016451;28;20029;-53
2022/04/10 13:09:51;;;;;;;;;;;;;;;;;;5024137;28;20438;-55
2022/04/10 13:15:51;;;;;;;4.97;3.85;;;;;;;;;;5010812;28;20113;-58
2022/04/10 13:21:29;;;;;;;5.03;4.00;;;;;;;;;;4978873;28;20037;-57
2022/04/10 13:26:54;;;;;;;7.10;3.53;;;;;;;;;;5015412;28;20029;-58
2022/04/10 13:29:46;;;;;;;3.78;2.83;;;;;;;;;;5042557;28;20565;-57
2022/04/10 13:32:36;;;;;;;3.58;2.78;;;;;;;;;;4977008;28;20122;-57
2022/04/10 13:35:26;;;;;;;2.97;2.13;;;;;;;;;;5020134;28;20036;-57
2022/04/10 13:38:09;;;;;;;4.75;3.25;;;;;;;;;;5019200;28;20026;-56
2022/04/10 13:40:35;;;;;;;3.13;2.20;;;;;;;;;;4993881;28;20590;-56
2022/04/10 13:46:41;;;;;;;11.98;3.63;;;;;;;;;;4978091;28;20039;-58
2022/04/10 13:49:54;;;;;;;4.13;2.67;;;;;;;;;;5027031;28;20036;-56
2022/04/10 13:52:47;;;;;;;5.95;3.00;;;;;;;;;;4956586;28;20567;-58
2022/04/10 14:01:36;;;;;;;3.72;2.55;;;;;;;;;;4960985;28;20070;-55
2022/04/10 14:07:01;;;;;;;3.30;2.70;;;;;;;;;;5034055;28;20044;-58
2022/04/10 14:09:50;;;;;;;4.97;3.00;;;;;;;;;;5016933;28;20553;-57
2022/04/10 14:15:22;;;;;;;5.63;3.88;;;;;;;;;;4980635;28;20085;-56
2022/04/10 14:18:00;;;;;;;4.00;2.35;;;;;;;;;;5022453;28;20033;-59
2022/04/10 14:20:26;;;;;;;4.05;2.42;;;;;;;;;;5017998;28;20030;-58
2022/04/10 14:23:22;;;;;;;4.80;2.60;;;;;;;;;;5017602;28;20033;-58
2022/04/10 14:26:11;;;;;;;6.95;3.13;;;;;;;;;;5032831;28;20038;-56
2022/04/10 14:29:07;;;;;;;4.78;3.05;;;;;;;;;;5027055;28;20083;-58
2022/04/10 14:31:56;;;;;;;;;;;;;;;;;;;;;
2022/04/10 14:34:40;;;;;;;3.95;2.85;;;;;;;;;;5025214;28;20415;-56
2022/04/10 14:37:22;;;;;;;8.48;5.07;;;;;;;;;;5034079;28;20048;-55
2022/04/10 14:40:05;;;;;;;6.22;3.50;;;;;;;;;;5035535;28;20383;-56
2022/04/10 14:42:51;;;;;;;4.65;2.97;;;;;;;;;;5033833;28;20048;-56
2022/04/10 14:45:35;;;;;;;5.70;3.22;;;;;;;;;;5015424;28;20053;-56
2022/04/10 14:48:25;;;;;;;9.68;3.42;;;;;;;;;;5014733;28;20569;-56
2022/04/10 14:51:31;;;;;;;3.97;2.83;;;;;;;;;;5015637;28;20018;-59
2022/04/10 14:54:04;;;;;;;5.28;3.50;;;;;;;;;;5014797;28;20073;-57
2022/04/10 14:56:50;;;;;;;5.55;3.38;;;;;;;;;;5008813;28;20496;-56
2022/04/10 14:59:29;;;;;;;5.85;3.97;;;;;;;;;;5027169;28;20382;-58
2022/04/10 15:05:17;;;;;;;5.43;4.60;;;;;;;;;;5033870;28;20045;-58
2022/04/10 15:08:07;;;;;;;3.72;3.03;;;;;;;;;;5034170;28;20021;-58
2022/04/10 15:10:52;;;;;;;;;;;;;;;;;;;;;
2022/04/10 15:16:39;;;;;;;8.25;6.88;;;;;;;;;;4969773;28;20025;-57
2022/04/10 15:20:02;;;;;;;;;;;;;;;;;;;;;
2022/04/10 15:22:51;;;;;;;7.25;4.22;;;;;;;;;;5032143;28;20425;-59
2022/04/10 15:28:32;;;;;;;4.63;3.13;;;;;;;;;;5038215;28;20494;-58
2022/04/10 15:31:21;;;;;;;6.28;4.68;;;;;;;;;;5025159;28;20029;-56
2022/04/10 15:34:04;;;;;;;3.47;3.00;;;;;;;;;;5026357;28;20081;-56
2022/04/10 15:40:10;;;;;;;4.45;3.50;;;;;;;;;;5012254;28;20040;-56
2022/04/10 15:43:27;;;;;;;5.03;3.70;;;;;;;;;;5012246;28;20033;-58
2022/04/10 15:46:04;;;;;;;11.05;7.47;;;;;;;;;;5030386;28;20036;-56
2022/04/10 15:48:55;;;;;;;5.47;4.45;;;;;;;;;;5015542;28;20065;-58
2022/04/10 15:51:46;;;;;;;7.45;4.95;;;;;;;;;;5026544;28;20113;-58
2022/04/10 15:54:39;;;;;;;10.35;6.75;;;;;;;;;;5044521;28;20123;-56
2022/04/10 15:57:26;;;;;;;8.95;6.25;;;;;;;;;;5014543;28;20029;-58
2022/04/10 15:59:59;;;;;;;8.52;7.30;;;;;;;;;;5030733;28;20475;-57
2022/04/10 16:02:42;;;;;;;9.70;5.90;;;;;;;;;;5030930;28;20487;-58
2022/04/10 16:05:32;;;;;;;7.50;5.88;;;;;;;;;;5011896;28;20387;-58
2022/04/10 16:08:13;;;;;;;11.67;5.43;;;;;;;;;;5008834;28;20519;-58
2022/04/10 16:10:49;;;;;;;8.98;5.13;;;;;;;;;;5025246;28;20090;-58
2022/04/10 16:16:27;;;;;;;6.47;4.38;;;;;;;;;;5030292;28;20120;-58
2022/04/10 16:19:05;;;;;;;29.08;19.67;;;;;;;;;;5026130;28;20478;-58
2022/04/10 16:30:46;;;;;;;11.23;7.75;;;;;;;;;;5028657;28;20134;-58
2022/04/10 16:34:16;;;;;;;3.83;2.88;;;;;;;;;;4929650;29;20715;-55
2022/04/10 16:36:42;;;;;;;8.18;4.53;;;;;;;;;;5020943;28;20033;-55
2022/04/10 16:42:47;;;;;;;6.32;4.00;;;;;;;;;;4959287;28;20173;-57
2022/04/10 16:48:37;;;;;;;4.93;3.78;;;;;;;;;;5024793;28;20051;-58
2022/04/10 16:51:29;;;;;;;4.95;3.63;;;;;;;;;;5024755;28;20042;-57
2022/04/10 16:57:15;;;;;;;3.25;2.65;;;;;;;;;;5007023;28;20076;-57
2022/04/10 16:59:46;;;;;;;4.45;3.63;;;;;;;;;;5030706;28;20026;-58
2022/04/10 17:02:48;;;;;;;5.65;3.38;;;;;;;;;;5031172;28;20041;-59
2022/04/10 17:05:36;;;;;;;5.63;3.15;;;;;;;;;;5026905;28;20116;-55
2022/04/10 17:08:09;;;;;;;4.82;3.05;;;;;;;;;;5027842;28;20395;-57
2022/04/10 17:11:07;;;;;;;4.32;3.08;;;;;;;;;;5024809;28;20032;-58
2022/04/10 17:16:40;;;;;;;3.42;2.83;;;;;;;;;;5029787;28;20441;-57
2022/04/10 17:19:43;;;;;;;5.65;3.38;;;;;;;;;;5027834;28;20021;-58
2022/04/10 17:22:28;;;;;;;7.07;2.78;;;;;;;;;;5028835;28;20065;-53
2022/04/10 17:25:06;;;;;;;10.05;4.63;;;;;;;;;;5026748;28;20098;-56
2022/04/10 17:27:55;;;;;;;;;;;;;;;;;;;;;
2022/04/10 17:30:42;;;;;;;6.38;4.18;;;;;;;;;;5022489;28;20051;-57
2022/04/10 17:33:26;;;;;;;;;;;;;;;;;;;;;
2022/04/10 17:36:25;;;;;;;7.13;4.25;;;;;;;;;;5033237;28;20559;-59
2022/04/10 17:39:18;;;;;;;3.72;3.03;;;;;;;;;;5032988;28;20802;-59
2022/04/10 17:42:05;;;;;;;4.05;2.72;;;;;;;;;;5029864;28;20484;-59
2022/04/10 17:44:48;;;;;;;3.65;3.22;;;;;;;;;;5028214;28;20029;-59
2022/04/10 18:00:10;;;;;;;5.65;3.03;;;;;;;;;;4971034;28;20462;-58
2022/04/10 18:02:39;;;;;;;;;;;;;;;;;;5029578;28;20049;-59
2022/04/10 18:05:25;;;;;;;7.72;2.67;;;;;;;;;;5029286;28;20031;-58
2022/04/10 18:11:22;;;;;;;4.95;3.40;;;;;;;;;;5024895;28;20061;-58
2022/04/10 18:14:06;;;;;;;6.85;3.00;;;;;;;;;;5040370;28;20495;-56
2022/04/10 18:22:59;;;;;;;4.20;3.10;;;;;;;;;;4994594;28;20086;-56
2022/04/10 18:28:45;;;;;;;5.72;2.65;;;;;;;;;;4942466;29;20143;-57
2022/04/10 18:31:50;;;;;;;4.85;3.30;;;;;;;;;;4949385;28;20039;-56
2022/04/10 18:37:24;;;;;;;3.72;3.33;;;;;;;;;;5011815;28;20104;-57
2022/04/10 18:43:06;;;;;;;7.82;3.42;;;;;;;;;;5011249;28;20222;-57
2022/04/10 18:45:58;;;;;;;5.95;3.45;;;;;;;;;;5035200;28;20037;-57
2022/04/10 18:51:32;;;;;;;4.18;3.03;;;;;;;;;;5034454;28;20040;-57
2022/04/10 18:54:16;;;;;;;7.80;4.90;;;;;;;;;;5032496;28;20616;-57
2022/04/10 18:57:06;;;;;;;19.67;13.90;;;;;;;;;;5017560;28;20033;-57
2022/04/10 19:02:34;;;;;;;;;;;;;;;;;;5035314;28;20378;-53
2022/04/10 19:08:27;;;;;;;6.32;5.18;;;;;;;;;;4950134;28;20043;-56
2022/04/10 19:11:24;;;;;;;5.93;3.72;;;;;;;;;;5013271;28;20022;-58
2022/04/10 19:14:04;;;;;;;6.60;3.75;;;;;;;;;;5014091;28;20021;-57
2022/04/10 19:16:44;;;;;;;6.05;3.47;;;;;;;;;;5014922;28;20490;-57
2022/04/10 19:22:28;;;;;;;;;;;;;;;;;;;;;
2022/04/10 19:25:15;;;;;;;3.88;3.25;;;;;;;;;;5017952;28;20567;-58
2022/04/10 19:30:55;;;;;;;;;;;;;;;;;;;;;
2022/04/10 19:33:33;;;;;;;6.38;3.83;;;;;;;;;;5034036;28;20040;-58
2022/04/10 19:36:21;;;;;;;4.45;2.88;;;;;;;;;;5030426;28;20563;-55
2022/04/10 19:45:20;;;;;;;4.80;3.47;;;;;;;;;;5032648;28;20128;-57
2022/04/10 19:48:01;;;;;;;6.30;2.97;;;;;;;;;;5031389;28;20021;-57
2022/04/10 19:54:17;;;;;;;4.43;3.47;;;;;;;;;;5031537;28;20040;-55
2022/04/10 19:57:13;;;;;;;4.25;3.20;;;;;;;;;;4960636;28;20030;-57
2022/04/10 19:59:56;;;;;;;6.15;3.30;;;;;;;;;;5030769;28;20105;-57
2022/04/10 20:02:44;;;;;;;;;;;;;;;;;;;;;
2022/04/10 20:05:30;;;;;;;6.90;4.28;;;;;;;;;;5029927;28;20047;-55
2022/04/10 20:08:31;;;;;;;3.83;2.95;;;;;;;;;;5030532;28;20478;-57
2022/04/10 20:14:19;;;;;;;5.38;3.97;;;;;;;;;;5011125;28;20048;-57
2022/04/10 20:20:29;;;;;;;8.55;4.20;;;;;;;;;;5013011;28;20554;-57
2022/04/10 20:23:07;;;;;;;8.35;4.10;;;;;;;;;;4993496;28;20531;-57
2022/04/10 20:25:59;;;;;;;7.40;4.75;;;;;;;;;;5013229;28;20488;-56
2022/04/10 20:28:54;;;;;;;8.00;4.20;;;;;;;;;;5029665;28;20509;-56
2022/04/10 20:31:44;;;;;;;6.32;4.68;;;;;;;;;;5030066;28;20033;-58
2022/04/10 20:34:21;;;;;;;6.88;5.78;;;;;;;;;;5031656;28;20443;-58
2022/04/10 20:40:05;;;;;;;10.27;8.65;;;;;;;;;;4950522;28;20031;-55
2022/04/10 20:43:08;;;;;;;12.38;8.55;;;;;;;;;;4935464;29;20035;-56
2022/04/10 20:45:37;;;;;;;9.45;7.97;;;;;;;;;;5010074;28;20049;-59
2022/04/10 20:51:52;;;;;;;7.45;5.97;;;;;;;;;;5010453;28;20096;-57
2022/04/10 20:57:44;;;;;;;7.20;5.03;;;;;;;;;;4931258;29;20049;-57
2022/04/10 21:09:29;;;;;;;14.93;12.93;;;;;;;;;;5026799;28;20045;-57
2022/04/10 21:12:32;;;;;;;13.95;11.82;;;;;;;;;;5030394;28;20041;-57
2022/04/10 21:18:22;;;;;;;12.35;10.93;;;;;;;;;;5029513;28;20045;-57
2022/04/10 21:21:10;;;;;;;12.50;11.18;;;;;;;;;;5030379;28;20514;-57
2022/04/10 21:23:56;;;;;;;10.27;7.22;;;;;;;;;;5030230;28;20029;-57
2022/04/10 21:26:45;;;;;;;;;;;;;;;;;;;;;
2022/04/10 21:29:29;;;;;;;11.02;9.77;;;;;;;;;;5025962;28;20416;-54
2022/04/10 21:34:59;;;;;;;8.15;5.57;;;;;;;;;;5031018;28;20056;-58
2022/04/10 21:40:54;;;;;;;7.95;6.18;;;;;;;;;;4985231;28;20269;-57
2022/04/10 21:43:48;;;;;;;9.90;6.32;;;;;;;;;;5030533;28;20040;-58
2022/04/10 21:46:32;;;;;;;7.28;5.88;;;;;;;;;;5030032;28;20061;-58
2022/04/10 21:50:02;;;;;;;;;;;;;;;;;;;;;
2022/04/10 21:52:51;;;;;;;8.20;7.13;;;;;;;;;;5029963;28;20049;-58
2022/04/10 22:04:39;;;;;;;9.60;6.35;;;;;;;;;;4963240;29;20071;-58
2022/04/10 22:07:39;;;;;;;;;;;;;;;;;;;;;
2022/04/10 22:10:20;;;;;;;8.80;6.37;;;;;;;;;;4969399;29;20051;-56
2022/04/10 22:13:10;;;;;;;9.73;7.35;;;;;;;;;;4969662;29;20067;-56
2022/04/10 22:15:51;;;;;;;9.38;6.70;;;;;;;;;;4946580;29;20050;-56
2022/04/10 22:21:35;;;;;;;10.97;6.70;;;;;;;;;;4968176;28;20050;-56
2022/04/10 22:24:20;;;;;;;8.37;6.27;;;;;;;;;;4968584;29;20051;-56
2022/04/10 22:27:10;;;;;;;7.38;6.35;;;;;;;;;;4968221;29;20079;-56
2022/04/10 22:39:27;;;;;;;7.27;6.33;;;;;;;;;;4930443;29;20099;-56
2022/04/10 22:42:15;;;;;;;8.98;6.85;;;;;;;;;;5025346;28;20049;-55
2022/04/10 22:44:57;;;;;;;7.40;6.63;;;;;;;;;;5028920;28;20030;-55
2022/04/10 22:47:39;;;;;;;8.83;5.77;;;;;;;;;;5028696;28;20026;-56
2022/04/10 22:50:40;;;;;;;;;;;;;;;;;;;;;
2022/04/10 22:56:07;;;;;;;5.88;4.97;;;;;;;;;;5029148;28;20026;-56
2022/04/10 22:58:46;;;;;;;6.87;4.50;;;;;;;;;;5009058;28;20034;-56
2022/04/10 23:01:20;;;;;;;8.23;4.53;;;;;;;;;;5028638;28;20044;-56
2022/04/10 23:03:59;;;;;;;7.10;5.60;;;;;;;;;;5028507;28;20026;-56
2022/04/10 23:07:06;;;;;;;6.75;5.55;;;;;;;;;;5028545;28;20026;-56
2022/04/10 23:09:40;;;;;;;5.87;4.63;;;;;;;;;;5028268;28;20022;-54
2022/04/10 23:12:16;;;;;;;;;;;;;;;;;;;;;
2022/04/10 23:24:06;;;;;;;6.95;5.07;;;;;;;;;;5012955;28;20053;-56
2022/04/10 23:26:51;;;;;;;6.28;5.30;;;;;;;;;;5028623;28;20026;-57
2022/04/10 23:29:29;;;;;;;11.68;5.55;;;;;;;;;;5027693;28;20029;-55
2022/04/10 23:32:08;;;;;;;5.73;4.97;;;;;;;;;;5027107;28;20356;-57
2022/04/10 23:35:06;;;;;;;6.07;5.27;;;;;;;;;;4993150;28;20057;-56
2022/04/10 23:37:44;;;;;;;6.47;4.65;;;;;;;;;;5015149;28;20044;-56
2022/04/10 23:40:20;;;;;;;5.27;4.77;;;;;;;;;;5028308;28;20523;-55
2022/04/10 23:43:12;;;;;;;5.70;5.10;;;;;;;;;;5007649;28;20066;-54
2022/04/10 23:46:01;;;;;;;8.13;4.33;;;;;;;;;;5000561;28;20037;-56
2022/04/10 23:48:46;;;;;;;6.43;4.90;;;;;;;;;;5026912;28;20022;-56
2022/04/10 23:51:37;;;;;;;5.60;4.23;;;;;;;;;;5028080;28;20033;-56
2022/04/10 23:54:58;;;;;;;;;;;;;;;;;;;;;
2022/04/10 23:56:59;;;;;;;7.03;5.60;;;;;;;;;;5015014;28;20057;-57
